createdAt,value
2018-04-23T00:08:34.383Z,0
2018-04-23T00:18:34.815Z,0
2018-04-23T00:28:34.420Z,0
2018-04-23T00:38:34.470Z,0
2018-04-23T00:48:34.409Z,0
2018-04-23T00:58:34.351Z,0
2018-04-23T01:08:34.772Z,0
2018-04-23T01:18:34.387Z,0
2018-04-23T01:28:34.374Z,0
2018-04-23T01:38:34.449Z,0
2018-04-23T01:48:34.374Z,0
2018-04-23T01:58:34.489Z,0
2018-04-23T02:08:34.451Z,0
2018-04-23T02:18:34.404Z,0
2018-04-23T02:28:34.406Z,0
2018-04-23T02:38:34.456Z,0
2018-04-23T02:48:34.365Z,0
2018-04-23T02:58:34.466Z,0
2018-04-23T03:08:34.397Z,0
2018-04-23T03:18:34.342Z,0
2018-04-23T03:28:34.470Z,0
2018-04-23T03:38:34.382Z,0
2018-04-23T03:48:34.446Z,4
2018-04-23T03:58:34.429Z,24
2018-04-23T04:08:34.365Z,76
2018-04-23T04:18:34.451Z,184
2018-04-23T04:28:34.367Z,528
2018-04-23T04:38:34.457Z,396
2018-04-23T04:48:34.424Z,744
2018-04-23T04:58:34.985Z,1468
2018-04-23T05:08:34.450Z,2064
2018-04-23T05:18:34.404Z,2092
2018-04-23T05:28:34.336Z,3396
2018-04-23T05:38:34.393Z,6016
2018-04-23T05:48:34.452Z,5532
2018-04-23T05:58:34.426Z,6588
2018-04-23T06:08:34.458Z,7200
2018-04-23T06:18:34.337Z,9092
2018-04-23T06:28:34.319Z,12512
2018-04-23T06:38:34.324Z,7640
2018-04-23T06:48:34.367Z,6864
2018-04-23T06:58:34.335Z,8748
2018-04-23T07:08:34.340Z,8948
2018-04-23T07:18:34.359Z,10704
2018-04-23T07:28:34.295Z,16276
2018-04-23T07:38:34.396Z,41312
2018-04-23T07:48:34.327Z,41504
2018-04-23T07:58:34.323Z,47232
2018-04-23T08:08:34.332Z,46592
2018-04-23T08:18:34.346Z,23680
2018-04-23T08:28:34.334Z,22144
2018-04-23T08:38:34.512Z,10232
2018-04-23T08:48:34.450Z,10180
2018-04-23T08:58:34.508Z,15972
2018-04-23T09:08:34.424Z,9912
2018-04-23T09:18:34.476Z,13076
2018-04-23T09:28:34.459Z,11668
2018-04-23T09:38:34.479Z,11372
2018-04-23T09:48:34.691Z,8384
2018-04-23T09:58:34.721Z,6824
2018-04-23T10:08:34.385Z,9308
2018-04-23T10:18:34.376Z,15300
2018-04-23T10:28:34.423Z,12436
2018-04-23T10:38:34.383Z,11656
2018-04-23T10:48:34.416Z,12416
2018-04-23T10:58:34.373Z,14392
2018-04-23T11:08:34.382Z,14996
2018-04-23T11:18:34.365Z,8820
2018-04-23T11:28:34.383Z,11900
2018-04-23T11:38:34.369Z,11272
2018-04-23T11:48:34.431Z,13584
2018-04-23T11:58:34.399Z,10612
2018-04-23T12:08:34.407Z,11484
2018-04-23T12:18:34.432Z,6316
2018-04-23T12:28:34.489Z,8500
2018-04-23T12:38:34.456Z,8640
2018-04-23T12:48:34.769Z,9888
2018-04-23T12:58:34.422Z,8688
2018-04-23T13:08:34.454Z,6320
2018-04-23T13:18:34.419Z,11308
2018-04-23T13:28:34.400Z,5716
2018-04-23T13:38:34.488Z,7924
2018-04-23T13:48:34.582Z,5904
2018-04-23T13:58:34.448Z,4320
2018-04-23T14:08:34.419Z,5988
2018-04-23T14:18:34.453Z,6752
2018-04-23T14:28:34.374Z,9288
2018-04-23T14:38:34.384Z,11016
2018-04-23T14:48:34.506Z,10464
2018-04-23T14:58:34.541Z,10724
2018-04-23T15:08:34.425Z,9488
2018-04-23T15:18:34.449Z,8472
2018-04-23T15:28:34.429Z,9856
2018-04-23T15:38:34.457Z,8780
2018-04-23T15:48:34.620Z,9140
2018-04-23T15:58:34.457Z,8244
2018-04-23T16:08:34.572Z,7812
2018-04-23T16:18:34.594Z,4036
2018-04-23T16:28:34.549Z,3596
2018-04-23T16:38:34.798Z,3124
2018-04-23T16:48:35.651Z,2820
2018-04-23T16:58:36.614Z,2720
2018-04-23T17:08:36.588Z,2500
2018-04-23T17:18:35.779Z,2396
2018-04-23T17:28:37.919Z,2140
2018-04-23T17:38:34.605Z,1860
2018-04-23T17:48:34.773Z,1552
2018-04-23T17:58:34.555Z,1260
2018-04-23T18:08:34.523Z,904
2018-04-23T18:18:34.748Z,592
2018-04-23T18:28:34.547Z,320
2018-04-23T18:38:34.523Z,172
2018-04-23T18:48:34.607Z,72
2018-04-23T18:58:35.102Z,24
2018-04-23T19:08:35.379Z,4
2018-04-23T19:18:34.568Z,0
2018-04-23T19:28:34.508Z,0
2018-04-23T19:38:34.641Z,0
2018-04-23T19:48:34.766Z,0
2018-04-23T19:58:34.536Z,0
2018-04-23T20:08:34.494Z,0
2018-04-23T20:18:34.551Z,0
2018-04-23T20:28:34.500Z,0
2018-04-23T20:38:34.610Z,0
2018-04-23T20:48:34.587Z,0
2018-04-23T20:58:34.642Z,0
2018-04-23T21:08:34.613Z,0
2018-04-23T21:18:34.576Z,0
2018-04-23T21:28:34.590Z,0
2018-04-23T21:38:34.995Z,0
2018-04-23T21:48:34.769Z,0
2018-04-23T21:58:34.551Z,0
2018-04-23T22:08:34.690Z,0
2018-04-23T22:18:36.121Z,0
2018-04-23T22:28:35.345Z,0
2018-04-23T22:38:34.810Z,0
2018-04-23T22:48:35.221Z,0
2018-04-23T22:58:37.640Z,0
2018-04-23T23:08:34.628Z,0
2018-04-23T23:18:34.783Z,0
2018-04-23T23:28:34.754Z,0
2018-04-23T23:38:34.597Z,0
2018-04-23T23:48:34.891Z,0
2018-04-23T23:58:35.140Z,0
